This is the latest recevied weather packets stored in our database for station/object AA0RD-13. If no packets are shown the sender has not sent any weather packets the latest 10 day(s).
| Time | Temp. | Humidity | Pressure | Rain* | Wind** | Luminosity | Snow |
|---|---|---|---|---|---|---|---|
| 1777516389 | 11.11° C | 94% | 1022.8 hPa | 0 mm | - | - | - |
| 1777516100 | 11.11° C | 94% | 1022.8 hPa | 0 mm | - | - | - |
| 1777515796 | 11.11° C | 93% | 1022.7 hPa | 0 mm | - | - | - |
| 1777514892 | 11.11° C | 93% | 1022.8 hPa | 0 mm | - | - | - |
| 1777514315 | 11.67° C | 93% | 1022.9 hPa | 0 mm | - | - | - |
| 1777511599 | 12.22° C | 90% | 1022.9 hPa | 0 mm | - | - | - |
| 1777511313 | 12.22° C | 91% | 1023 hPa | 0 mm | - | - | - |
| 1777510427 | 12.22° C | 92% | 1023.1 hPa | 0 mm | - | - | - |
| 1777508908 | 12.22° C | 92% | 1023.2 hPa | 0 mm | - | - | - |
| 1777508023 | 12.22° C | 91% | 1023.2 hPa | 0 mm | - | - | - |
| 1777507407 | 12.22° C | 90% | 1023.2 hPa | 0 mm | - | - | - |
| 1777505600 | 13.33° C | 85% | 1023.6 hPa | 0 mm | - | - | - |
| 1777505003 | 13.33° C | 84% | 1023.7 hPa | 0 mm | - | - | - |
| 1777504405 | 13.33° C | 86% | 1023.8 hPa | 0 mm | - | - | - |
| 1777503523 | 13.33° C | 86% | 1023.9 hPa | 0 mm | - | - | - |
| 1777502595 | 13.33° C | 85% | 1024.3 hPa | 0 mm | - | - | - |
| 1777501999 | 13.33° C | 86% | 1024.5 hPa | 0 mm | - | - | - |
| 1777501690 | 13.33° C | 87% | 1024.5 hPa | 0 mm | - | - | - |
| 1777500804 | 13.33° C | 88% | 1024.7 hPa | 0 mm | - | - | - |
| 1777500496 | 13.33° C | 88% | 1024.8 hPa | 0 mm | - | - | - |
| 1777500207 | 12.78° C | 89% | 1024.8 hPa | 0 mm | - | - | - |
| 1777498991 | 12.78° C | 90% | 1025 hPa | 0 mm | - | - | - |
| 1777496894 | 12.22° C | 92% | 1025 hPa | 0 mm | - | - | - |
| 1777496606 | 12.22° C | 93% | 1025 hPa | 0 mm | - | - | - |
| 1777492703 | 11.11° C | 94% | 1025.4 hPa | 0 mm | - | - | - |
* Rain latest hour (hover to see other rain measurements)
** Current wind speed in m/s (hover to see current wind gust speed)